Time;durP1;ratioP1;P1;durP2;ratioP2;P2;SDS_P1;SDS_P2;PMS_P1;PMS_P2;Temp;Humidity;BMP_temperature;BMP_pressure;BME280_temperature;BME280_humidity;BME280_pressure;Samples;Min_cycle;Max_cycle;Signal;HPM_P1;HPM_P2
2023/10/01 00:02:14;;;;;;;0.47;0.22;;;;;;;14.34;64.03;102027.13;15685997;28;20033;-47
2023/10/01 00:09:48;;;;;;;0.25;0.25;;;;;;;14.12;64.50;102026.41;15676649;28;20037;-51
2023/10/01 00:17:22;;;;;;;1.00;0.80;;;;;;;13.56;66.09;102019.31;15708897;28;20037;-50
2023/10/01 00:24:58;;;;;;;0.20;0.17;;;;;;;14.15;64.27;102013.34;15649870;22;20509;-47
2023/10/01 00:32:31;;;;;;;0.00;0.00;;;;;;;14.25;63.75;102012.97;15615079;28;20053;-50
2023/10/01 00:40:08;;;;;;;0.00;0.00;;;;;;;14.28;63.56;102005.28;15590281;28;20044;-46
2023/10/01 00:47:42;;;;;;;0.35;0.35;;;;;;;14.14;63.93;102011.69;15569710;28;20046;-48
2023/10/01 00:55:17;;;;;;;0.00;0.00;;;;;;;13.90;64.90;101987.94;15568011;28;20463;-45
2023/10/01 01:02:57;;;;;;;0.22;0.20;;;;;;;14.25;63.79;101986.78;15605317;28;20043;-46
2023/10/01 01:10:39;;;;;;;0.03;0.03;;;;;;;14.03;64.42;101987.97;15602645;28;20034;-44
2023/10/01 01:18:14;;;;;;;0.55;0.40;;;;;;;14.36;64.17;101988.09;15585528;28;20073;-45
2023/10/01 01:25:49;;;;;;;0.25;0.20;;;;;;;14.23;64.05;101969.97;15618863;28;20115;-45
2023/10/01 01:33:26;;;;;;;0.10;0.10;;;;;;;14.11;64.08;101939.19;15610533;28;20041;-47
2023/10/01 01:41:01;;;;;;;0.68;0.35;;;;;;;14.30;64.67;101970.81;15598913;28;20044;-50
2023/10/01 01:48:37;;;;;;;0.40;0.22;;;;;;;14.33;64.67;101969.56;15556466;28;20120;-46
2023/10/01 01:56:12;;;;;;;0.00;0.00;;;;;;;14.47;64.05;101970.44;15602092;28;20394;-45
2023/10/01 02:03:51;;;;;;;0.68;0.68;;;;;;;14.32;64.23;101949.00;15603289;28;20220;-47
2023/10/01 02:11:32;;;;;;;0.38;0.20;;;;;;;14.30;64.45;101970.81;15599472;28;20434;-49
2023/10/01 02:19:17;;;;;;;0.10;0.05;;;;;;;14.43;64.26;101961.91;15596845;28;20128;-47
2023/10/01 02:26:59;;;;;;;0.00;0.00;;;;;;;14.35;63.78;101948.56;15597496;28;20084;-52
2023/10/01 02:34:32;;;;;;;5.22;1.48;;;;;;;14.11;64.45;101936.50;15597546;28;20057;-47
2023/10/01 02:42:21;;;;;;;0.10;0.10;;;;;;;14.10;64.78;101937.53;15587271;28;20129;-45
2023/10/01 02:49:59;;;;;;;0.47;0.47;;;;;;;14.12;64.34;101938.16;15596296;28;20046;-49
2023/10/01 02:57:33;;;;;;;0.00;0.00;;;;;;;13.68;65.69;101939.47;15599839;28;20096;-51
2023/10/01 03:05:14;;;;;;;0.00;0.00;;;;;;;13.99;65.26;101930.88;15594607;28;20045;-45
2023/10/01 03:12:50;;;;;;;0.00;0.00;;;;;;;14.21;64.12;101928.81;15612518;28;20037;-51
2023/10/01 03:28:26;;;;;;;0.00;0.00;;;;;;;14.52;63.18;101935.56;15611564;28;20041;-49
2023/10/01 03:35:59;;;;;;;0.32;0.30;;;;;;;14.22;64.91;101937.75;15611732;28;20046;-45
2023/10/01 03:43:35;;;;;;;5.55;0.65;;;;;;;13.93;65.86;101936.22;15611465;28;20057;-46
2023/10/01 03:51:09;;;;;;;0.00;0.00;;;;;;;14.30;63.52;101927.59;15593443;28;20041;-47
2023/10/01 03:58:43;;;;;;;0.00;0.00;;;;;;;14.49;64.36;101920.56;15569752;28;20037;-46
2023/10/01 04:06:17;;;;;;;0.00;0.00;;;;;;;14.61;64.22;101920.78;15547990;28;20044;-45
2023/10/01 04:14:07;;;;;;;0.32;0.32;;;;;;;14.62;63.39;101919.75;15565725;28;20128;-45
2023/10/01 04:21:43;;;;;;;0.68;0.45;;;;;;;14.53;64.23;101912.88;15604353;28;20434;-45
2023/10/01 04:29:18;;;;;;;0.00;0.00;;;;;;;14.64;63.44;101914.13;15609699;28;20474;-45
2023/10/01 04:36:53;;;;;;;0.03;0.03;;;;;;;14.65;62.65;101929.31;15609518;28;20128;-47
2023/10/01 04:44:30;;;;;;;0.40;0.13;;;;;;;14.55;64.12;101929.75;15592113;28;20053;-46
2023/10/01 04:52:10;;;;;;;0.00;0.00;;;;;;;14.42;63.38;101935.94;15590982;28;20446;-48
2023/10/01 04:59:57;;;;;;;0.00;0.00;;;;;;;14.55;63.49;101929.75;15576841;28;20046;-51
2023/10/01 05:07:31;;;;;;;0.25;0.25;;;;;;;14.20;64.20;101937.13;15601617;28;20052;-47
2023/10/01 05:15:17;;;;;;;0.15;0.15;;;;;;;13.70;65.58;101937.41;15609906;28;20467;-46
2023/10/01 05:22:54;;;;;;;0.77;0.77;;;;;;;14.15;63.78;101940.44;15614430;28;20136;-46
2023/10/01 05:30:36;;;;;;;4.85;0.85;;;;;;;14.25;63.25;101940.06;15594638;28;20091;-45
2023/10/01 05:38:14;;;;;;;0.43;0.32;;;;;;;14.25;63.63;101942.75;15601511;28;21136;-46
2023/10/01 05:45:52;;;;;;;0.00;0.00;;;;;;;14.71;62.46;101932.00;15618844;28;20077;-45
2023/10/01 05:53:26;;;;;;;11.27;0.57;;;;;;;14.69;62.29;101933.28;15610548;28;20076;-47
2023/10/01 06:01:13;;;;;;;0.60;0.60;;;;;;;14.48;63.46;101931.59;15575263;28;20550;-46
2023/10/01 06:08:49;;;;;;;0.20;0.20;;;;;;;14.02;64.75;101919.66;15614096;28;20060;-47
2023/10/01 06:16:25;;;;;;;0.10;0.10;;;;;;;14.36;64.08;101925.97;15616662;28;20172;-49
2023/10/01 06:24:03;;;;;;;0.63;0.30;;;;;;;14.32;64.12;101927.41;15611570;22;20100;-48
2023/10/01 06:31:52;;;;;;;0.08;0.08;;;;;;;14.76;62.81;101932.22;15593382;28;20521;-47
2023/10/01 06:39:27;;;;;;;0.25;0.25;;;;;;;14.54;63.94;101928.88;15619646;28;20055;-47
2023/10/01 06:47:14;;;;;;;0.00;0.00;;;;;;;15.04;63.04;101921.16;15599739;28;20048;-46
2023/10/01 06:54:47;;;;;;;0.20;0.20;;;;;;;15.27;61.69;101914.47;15573869;28;20367;-47
2023/10/01 07:02:21;;;;;;;0.00;0.00;;;;;;;15.35;61.52;101924.22;15603336;28;20056;-48
2023/10/01 07:09:56;;;;;;;0.17;0.17;;;;;;;15.48;60.72;101934.97;15595704;28;20071;-47
2023/10/01 07:17:31;;;;;;;0.20;0.13;;;;;;;15.69;61.90;101948.25;15612290;28;20037;-48
2023/10/01 07:25:28;;;;;;;0.00;0.00;;;;;;;16.01;60.01;101945.63;15605460;28;20140;-46
2023/10/01 07:33:00;;;;;;;0.10;0.10;;;;;;;15.98;60.40;101946.88;15590261;28;20045;-47
2023/10/01 07:40:52;;;;;;;0.20;0.20;;;;;;;16.56;59.14;101943.19;15560829;28;20081;-46
2023/10/01 07:48:27;;;;;;;2.75;1.58;;;;;;;16.35;58.32;101954.38;15564794;28;20074;-48
2023/10/01 07:56:02;;;;;;;0.00;0.00;;;;;;;16.70;57.98;101954.75;15561200;28;20410;-46
2023/10/01 08:03:48;;;;;;;0.40;0.30;;;;;;;16.63;58.62;101953.94;15567575;28;20232;-47
2023/10/01 08:19:13;;;;;;;0.08;0.08;;;;;;;16.53;58.91;101957.16;15525618;28;20045;-47
2023/10/01 08:26:57;;;;;;;0.20;0.20;;;;;;;17.08;57.68;101949.22;15586373;28;20045;-48
2023/10/01 08:35:01;;;;;;;0.05;0.05;;;;;;;16.79;58.00;101954.28;15581529;28;20060;-47
2023/10/01 08:42:29;;;;;;;0.20;0.20;;;;;;;17.37;56.58;101965.81;15600475;28;20076;-45
2023/10/01 08:50:28;;;;;;;0.00;0.00;;;;;;;17.05;57.66;101966.75;15597787;28;20038;-44
2023/10/01 08:58:14;;;;;;;0.45;0.43;;;;;;;17.67;56.58;101968.59;15615705;28;20069;-44
2023/10/01 09:06:01;;;;;;;0.10;0.10;;;;;;;18.12;55.55;101958.22;15616965;28;20069;-46
2023/10/01 09:13:45;;;;;;;0.10;0.10;;;;;;;18.41;54.31;101956.53;15592095;28;20053;-47
2023/10/01 09:21:28;;;;;;;1.05;0.50;;;;;;;18.67;53.36;101943.59;15622686;28;20425;-44
2023/10/01 09:29:12;;;;;;;0.30;0.30;;;;;;;18.49;53.45;101952.66;15610431;28;20042;-45
2023/10/01 09:36:46;;;;;;;0.22;0.22;;;;;;;18.45;52.72;101937.88;15593646;28;20119;-45
2023/10/01 09:44:20;;;;;;;0.10;0.10;;;;;;;19.93;48.37;101916.69;15612620;28;20267;-46
2023/10/01 09:51:58;;;;;;;0.90;0.90;;;;;;;19.37;48.56;101924.53;15608263;28;20080;-47
2023/10/01 09:59:39;;;;;;;1.45;0.60;;;;;;;19.57;48.79;101921.41;15588496;28;20596;-45
2023/10/01 10:07:24;;;;;;;0.68;0.20;;;;;;;21.11;46.02;101918.38;15588935;28;20061;-47
2023/10/01 10:14:58;;;;;;;0.10;0.10;;;;;;;21.21;44.08;101917.66;15578878;28;20045;-46
2023/10/01 10:22:33;;;;;;;0.00;0.00;;;;;;;20.54;45.43;101931.41;15583116;28;20071;-50
2023/10/01 10:30:14;;;;;;;0.10;0.10;;;;;;;21.51;42.67;101922.75;15564872;28;20136;-49
2023/10/01 10:37:53;;;;;;;1.75;0.47;;;;;;;21.62;42.63;101929.16;15591036;28;20050;-50
2023/10/01 10:45:31;;;;;;;0.28;0.20;;;;;;;20.78;44.21;101921.97;15592657;28;20057;-47
2023/10/01 10:53:14;;;;;;;6.35;0.63;;;;;;;20.51;44.87;101916.38;15582412;28;20041;-46
2023/10/01 11:00:48;;;;;;;0.20;0.20;;;;;;;21.96;41.50;101907.09;15593524;28;20034;-45
2023/10/01 11:08:26;;;;;;;0.43;0.43;;;;;;;20.65;44.02;101914.13;15594716;28;20517;-45
2023/10/01 11:16:09;;;;;;;0.45;0.45;;;;;;;20.86;44.45;101920.75;15565724;28;20562;-46
2023/10/01 11:23:44;;;;;;;0.10;0.10;;;;;;;21.42;44.00;101910.63;15577689;28;20517;-46
2023/10/01 11:31:23;;;;;;;0.08;0.05;;;;;;;20.50;45.17;101898.34;15565414;28;20425;-46
2023/10/01 11:38:58;;;;;;;0.17;0.05;;;;;;;20.54;44.65;101895.97;15588593;28;20069;-44
2023/10/01 11:46:56;;;;;;;0.10;0.10;;;;;;;20.26;46.22;101892.19;15588864;28;20136;-49
2023/10/01 11:54:43;;;;;;;0.17;0.05;;;;;;;20.44;45.91;101896.59;15591962;28;20042;-44
2023/10/01 12:02:20;;;;;;;0.13;0.10;;;;;;;20.67;45.47;101879.25;15583634;28;20099;-48
2023/10/01 12:09:55;;;;;;;0.20;0.20;;;;;;;20.62;45.66;101887.38;15590957;28;20429;-45
2023/10/01 12:17:29;;;;;;;0.15;0.15;;;;;;;20.67;46.68;101883.88;15588010;28;20045;-49
2023/10/01 12:25:04;;;;;;;3.95;1.08;;;;;;;20.46;46.64;101885.44;15604219;23;20449;-48
2023/10/01 12:32:42;;;;;;;0.25;0.08;;;;;;;20.48;44.95;101875.16;15644999;28;20064;-47
2023/10/01 12:40:16;;;;;;;0.60;0.57;;;;;;;20.50;44.84;101882.00;15680638;28;20049;-48
2023/10/01 12:47:51;;;;;;;0.13;0.13;;;;;;;20.11;44.97;101881.03;15632461;28;20045;-46
2023/10/01 12:55:29;;;;;;;0.15;0.15;;;;;;;20.64;46.21;101875.09;15649765;28;20482;-50
2023/10/01 13:03:09;;;;;;;0.65;0.65;;;;;;;20.62;44.47;101865.53;15660434;28;20064;-47
2023/10/01 13:10:50;;;;;;;0.08;0.08;;;;;;;20.07;45.10;101872.53;15683681;28;20049;-50
2023/10/01 13:18:28;;;;;;;0.38;0.32;;;;;;;20.18;44.69;101854.44;15661357;28;20068;-48
2023/10/01 13:26:14;;;;;;;0.65;0.60;;;;;;;20.22;44.34;101865.69;15658317;28;20047;-48
2023/10/01 13:34:06;;;;;;;0.00;0.00;;;;;;;20.13;46.48;101871.53;15652142;28;20124;-46
2023/10/01 14:13:07;;;;;;;;;;;;;;;19.81;44.59;101824.91;15680695;28;20140;-47
2023/10/01 14:20:46;;;;;;;0.00;0.00;;;;;;;19.70;45.48;101820.38;15669455;28;19921;-48
2023/10/01 14:28:21;;;;;;;0.15;0.13;;;;;;;19.99;46.91;101831.22;15644448;28;20477;-48
2023/10/01 14:35:55;;;;;;;0.00;0.00;;;;;;;19.36;47.13;101814.81;15653536;28;20053;-47
2023/10/01 14:43:30;;;;;;;2.08;1.08;;;;;;;19.56;48.50;101805.34;15649095;28;20073;-48
2023/10/01 14:51:03;;;;;;;3.50;0.22;;;;;;;19.44;48.85;101796.41;15642806;28;20037;-47
2023/10/01 14:58:39;;;;;;;0.28;0.28;;;;;;;19.91;48.92;101796.19;15645645;28;20046;-48
2023/10/01 15:06:17;;;;;;;0.50;0.50;;;;;;;19.78;48.71;101809.06;15653081;28;20040;-47
2023/10/01 15:13:52;;;;;;;1.23;0.25;;;;;;;19.57;49.89;101815.19;15647412;28;20041;-47
2023/10/01 15:21:30;;;;;;;0.00;0.00;;;;;;;19.04;51.08;101822.59;15646685;28;20052;-48
2023/10/01 15:29:05;;;;;;;0.47;0.10;;;;;;;19.77;50.04;101831.94;15645224;28;20079;-49
2023/10/01 15:36:47;;;;;;;0.00;0.00;;;;;;;20.03;49.92;101851.47;15649412;28;20482;-50
2023/10/01 15:44:22;;;;;;;1.55;0.28;;;;;;;19.76;50.57;101846.63;15650679;28;20045;-49
2023/10/01 15:51:56;;;;;;;0.10;0.10;;;;;;;18.69;53.79;101860.69;15650366;28;20095;-50
2023/10/01 15:59:30;;;;;;;0.00;0.00;;;;;;;18.88;54.31;101845.06;15654202;28;20048;-48
2023/10/01 16:07:04;;;;;;;0.00;0.00;;;;;;;19.36;54.19;101843.94;15658946;28;20136;-47
2023/10/01 16:14:43;;;;;;;2.17;0.55;;;;;;;18.44;57.04;101849.22;15644310;28;20045;-50
2023/10/01 16:22:20;;;;;;;0.00;0.00;;;;;;;18.45;57.38;101840.00;15652134;28;20234;-48
2023/10/01 16:30:16;;;;;;;0.80;0.32;;;;;;;18.86;57.30;101831.72;15662937;28;20072;-46
2023/10/01 16:37:50;;;;;;;0.20;0.20;;;;;;;18.45;58.52;101829.94;15676741;28;20071;-46
2023/10/01 16:45:27;;;;;;;0.10;0.10;;;;;;;18.79;58.42;101816.59;15677124;28;20034;-46
2023/10/01 16:53:01;;;;;;;0.22;0.20;;;;;;;18.88;58.16;101817.06;15675520;28;20044;-48
2023/10/01 17:00:37;;;;;;;0.10;0.05;;;;;;;19.10;57.73;101815.34;15639106;28;20140;-46
2023/10/01 17:08:14;;;;;;;0.13;0.13;;;;;;;18.96;58.60;101812.06;15614517;28;20508;-47
2023/10/01 17:15:52;;;;;;;0.10;0.10;;;;;;;19.27;57.26;101799.91;15642116;28;20049;-48
2023/10/01 17:23:25;;;;;;;0.63;0.63;;;;;;;18.96;58.44;101793.03;15685453;28;20074;-50
2023/10/01 17:31:07;;;;;;;1.80;0.98;;;;;;;19.26;58.25;101801.00;15685963;28;20052;-48
2023/10/01 17:38:40;;;;;;;0.50;0.50;;;;;;;19.21;57.68;101803.63;15685078;28;20423;-49
2023/10/01 17:46:15;;;;;;;0.13;0.13;;;;;;;19.19;58.68;101813.91;15683554;28;20083;-51
2023/10/01 17:53:50;;;;;;;2.22;0.65;;;;;;;19.24;57.83;101808.56;15681103;28;20041;-46
2023/10/01 18:01:25;;;;;;;0.20;0.20;;;;;;;19.26;58.08;101817.31;15668551;28;20049;-50
2023/10/01 18:09:00;;;;;;;0.10;0.10;;;;;;;19.25;57.86;101803.94;15685559;28;20462;-46
2023/10/01 18:16:34;;;;;;;0.00;0.00;;;;;;;19.22;58.39;101815.34;15642334;28;20041;-47
2023/10/01 18:24:08;;;;;;;0.22;0.20;;;;;;;19.16;58.20;101817.09;15675717;23;20073;-50
2023/10/01 18:31:48;;;;;;;0.10;0.08;;;;;;;18.80;58.84;101815.53;15675277;28;20420;-54
2023/10/01 18:39:32;;;;;;;0.38;0.35;;;;;;;18.84;59.15;101811.28;15678331;28;20520;-51
2023/10/01 18:47:06;;;;;;;0.70;0.35;;;;;;;18.80;59.34;101810.94;15671148;28;20056;-50
2023/10/01 18:54:41;;;;;;;0.57;0.57;;;;;;;18.88;59.30;101804.28;15660299;28;20044;-52
2023/10/01 19:02:21;;;;;;;0.08;0.08;;;;;;;18.85;59.43;101808.31;15646842;28;20351;-51
2023/10/01 19:09:54;;;;;;;2.33;0.95;;;;;;;18.86;59.22;101811.84;15658086;28;20432;-50
2023/10/01 19:17:29;;;;;;;0.00;0.00;;;;;;;18.60;60.63;101799.53;15679446;28;20461;-55
2023/10/01 19:25:03;;;;;;;0.70;0.40;;;;;;;18.65;60.74;101804.28;15663712;28;20490;-50
2023/10/01 19:32:39;;;;;;;0.08;0.08;;;;;;;18.75;59.63;101790.97;15631170;28;20041;-50
2023/10/01 19:40:18;;;;;;;0.00;0.00;;;;;;;18.88;59.41;101793.38;15642446;28;20079;-51
2023/10/01 19:47:55;;;;;;;0.28;0.17;;;;;;;18.02;62.18;101795.75;15659408;28;20049;-50
2023/10/01 19:55:31;;;;;;;2.92;1.13;;;;;;;18.03;62.94;101796.59;15664552;28;20056;-51
2023/10/01 20:03:11;;;;;;;0.70;0.30;;;;;;;18.43;61.02;101801.34;15668883;28;20048;-51
2023/10/01 20:10:46;;;;;;;0.28;0.28;;;;;;;18.51;60.58;101795.53;15677408;28;20049;-51
2023/10/01 20:18:21;;;;;;;1.15;0.55;;;;;;;17.88;61.94;101788.88;15677204;28;20107;-54
2023/10/01 20:25:55;;;;;;;0.45;0.40;;;;;;;17.84;61.43;101758.63;15681922;28;20140;-49
2023/10/01 20:33:32;;;;;;;0.20;0.20;;;;;;;18.30;60.84;101789.63;15669059;28;20048;-52
2023/10/01 20:41:14;;;;;;;0.20;0.20;;;;;;;18.13;60.89;101788.69;15664419;28;20051;-51
2023/10/01 20:48:50;;;;;;;0.10;0.10;;;;;;;18.44;60.16;101787.50;15669162;28;20055;-49
2023/10/01 20:56:28;;;;;;;0.17;0.17;;;;;;;18.65;59.19;101787.97;15672021;28;20041;-51
2023/10/01 21:04:11;;;;;;;0.10;0.08;;;;;;;18.75;59.01;101788.25;15660201;28;20107;-52
2023/10/01 21:11:50;;;;;;;0.43;0.38;;;;;;;18.76;59.19;101793.44;15667438;28;20057;-48
2023/10/01 21:19:24;;;;;;;0.20;0.10;;;;;;;18.69;60.02;101783.72;15642842;28;20331;-49
2023/10/01 21:26:58;;;;;;;0.05;0.05;;;;;;;18.69;60.49;101781.00;15659795;28;20136;-48
2023/10/01 21:34:36;;;;;;;0.00;0.00;;;;;;;18.64;60.44;101770.00;15686498;28;20076;-50
2023/10/01 21:42:19;;;;;;;24.85;1.02;;;;;;;18.64;60.54;101770.81;15683178;28;20041;-46
2023/10/01 21:49:57;;;;;;;0.05;0.05;;;;;;;18.62;60.44;101762.09;15673285;28;20064;-48
2023/10/01 21:57:30;;;;;;;0.68;0.60;;;;;;;18.57;60.54;101767.41;15639601;28;20041;-48
2023/10/01 22:05:05;;;;;;;0.30;0.30;;;;;;;18.60;60.43;101758.75;15682905;28;20045;-50
2023/10/01 22:12:47;;;;;;;0.00;0.00;;;;;;;18.61;60.78;101763.16;15684204;28;20037;-52
2023/10/01 22:20:30;;;;;;;0.08;0.08;;;;;;;18.72;60.36;101765.06;15683189;28;20067;-51
2023/10/01 22:28:05;;;;;;;0.27;0.20;;;;;;;18.57;61.83;101760.06;15682468;28;20136;-49
2023/10/01 22:35:40;;;;;;;0.10;0.10;;;;;;;18.65;60.88;101767.03;15683839;28;20041;-49
2023/10/01 22:43:13;;;;;;;0.13;0.13;;;;;;;18.65;61.29;101763.47;15682060;28;20401;-51
2023/10/01 22:50:50;;;;;;;;;;;;;;;18.63;60.52;101755.56;15682248;28;20049;-48
2023/10/01 22:58:29;;;;;;;2.72;0.93;;;;;;;18.70;59.51;101761.75;15674438;28;19964;-47
2023/10/01 23:06:04;;;;;;;0.52;0.47;;;;;;;18.61;58.44;101757.72;15680893;28;20408;-49
2023/10/01 23:13:38;;;;;;;0.20;0.20;;;;;;;18.79;58.38;101757.59;15679405;28;20051;-53
2023/10/01 23:21:14;;;;;;;0.47;0.25;;;;;;;18.71;57.75;101747.09;15679638;28;20049;-46
2023/10/01 23:29:15;;;;;;;0.03;0.03;;;;;;;18.62;58.06;101743.06;15678604;28;20115;-49
2023/10/01 23:36:50;;;;;;;0.08;0.08;;;;;;;18.37;58.04;101721.56;15678298;28;20033;-49
2023/10/01 23:44:27;;;;;;;0.20;0.20;;;;;;;18.53;58.13;101747.19;15678060;28;20575;-49
2023/10/01 23:52:03;;;;;;;2.28;1.25;;;;;;;18.32;58.12;101741.28;15677064;28;20037;-50
2023/10/01 23:59:36;;;;;;;0.63;0.63;;;;;;;18.17;59.26;101734.69;15672076;28;20081;-49
